Time;durP1;ratioP1;P1;durP2;ratioP2;P2;SDS_P1;SDS_P2;PMS_P1;PMS_P2;Temp;Humidity;BMP_temperature;BMP_pressure;BME280_temperature;BME280_humidity;BME280_pressure;Samples;Min_cycle;Max_cycle;Signal;HPM_P1;HPM_P2
2022/01/16 00:00:18;;;;;;;24.17;14.05;;;3.00;99.90;;;;;;5071281;28;20434;-48
2022/01/16 00:05:29;;;;;;;24.60;15.02;;;3.10;99.90;;;;;;5091965;28;20024;-48
2022/01/16 00:07:56;;;;;;;26.02;15.63;;;3.10;99.90;;;;;;5089988;28;20035;-51
2022/01/16 00:10:22;;;;;;;30.35;16.48;;;3.20;99.90;;;;;;5090841;28;20085;-48
2022/01/16 00:12:49;;;;;;;34.50;17.67;;;3.10;99.90;;;;;;5092020;28;20028;-52
2022/01/16 00:15:19;;;;;;;33.38;18.15;;;3.10;99.90;;;;;;5091865;28;20020;-52
2022/01/16 00:18:00;;;;;;;30.90;18.30;;;3.10;99.90;;;;;;5089659;28;20029;-48
2022/01/16 00:20:27;;;;;;;33.40;19.60;;;3.00;99.90;;;;;;5078529;28;20017;-49
2022/01/16 00:22:53;;;;;;;34.03;18.52;;;3.10;99.90;;;;;;5071644;28;20027;-49
2022/01/16 00:25:18;;;;;;;34.90;20.52;;;3.00;99.90;;;;;;5072049;28;20017;-49
2022/01/16 00:27:44;;;;;;;38.30;20.33;;;2.90;99.90;;;;;;5071942;28;20025;-51
2022/01/16 00:30:11;;;;;;;34.53;20.20;;;2.90;99.90;;;;;;5069771;28;20388;-49
2022/01/16 00:32:36;;;;;;;38.05;21.30;;;2.90;99.90;;;;;;5071696;28;20423;-51
2022/01/16 00:35:03;;;;;;;33.67;20.90;;;2.90;99.90;;;;;;5071205;28;20115;-51
2022/01/16 00:37:29;;;;;;;34.95;20.88;;;2.80;99.90;;;;;;5072313;28;20039;-48
2022/01/16 00:39:55;;;;;;;42.60;22.60;;;2.90;99.90;;;;;;5070884;28;20528;-51
2022/01/16 00:42:20;;;;;;;37.65;21.40;;;2.90;99.90;;;;;;5071497;28;20095;-48
2022/01/16 00:44:46;;;;;;;43.08;21.65;;;2.90;99.90;;;;;;5071325;28;20020;-46
2022/01/16 00:47:11;;;;;;;43.33;23.38;;;2.80;99.90;;;;;;5080463;28;20035;-51
2022/01/16 00:49:39;;;;;;;35.92;21.23;;;3.00;99.90;;;;;;5091321;28;20028;-49
2022/01/16 00:52:06;;;;;;;44.65;23.30;;;2.90;99.90;;;;;;5091321;28;20024;-48
2022/01/16 00:54:32;;;;;;;47.95;25.02;;;3.00;99.90;;;;;;5091257;28;20039;-50
2022/01/16 00:56:57;;;;;;;44.53;24.55;;;2.80;99.90;;;;;;5079011;28;20519;-51
2022/01/16 00:59:23;;;;;;;50.85;25.50;;;2.80;99.90;;;;;;5069902;28;20021;-49
2022/01/16 01:01:48;;;;;;;55.97;25.58;;;2.80;99.90;;;;;;5071328;28;20027;-50
2022/01/16 01:04:14;;;;;;;52.17;25.38;;;2.80;99.90;;;;;;5071517;28;20028;-49
2022/01/16 01:06:40;;;;;;;55.50;25.83;;;2.80;99.90;;;;;;5083714;28;20431;-49
2022/01/16 01:09:05;;;;;;;54.30;24.75;;;2.80;99.90;;;;;;5091504;28;20028;-47
2022/01/16 01:11:31;;;;;;;59.75;27.05;;;2.80;99.90;;;;;;5091493;28;20078;-50
2022/01/16 01:14:15;;;;;;;52.20;26.25;;;2.80;99.90;;;;;;5091671;28;20400;-50
2022/01/16 01:16:56;;;;;;;63.22;29.63;;;2.90;99.90;;;;;;5078077;28;20029;-48
2022/01/16 01:19:28;;;;;;;66.47;31.55;;;2.90;99.90;;;;;;5069516;28;20130;-49
2022/01/16 01:21:54;;;;;;;67.20;31.10;;;3.00;99.90;;;;;;5073565;28;20025;-46
2022/01/16 01:24:19;;;;;;;69.07;30.00;;;3.10;99.90;;;;;;5074936;28;20037;-50
2022/01/16 01:26:55;;;;;;;61.13;27.98;;;3.00;99.90;;;;;;5086511;28;20039;-53
2022/01/16 01:29:21;;;;;;;63.40;30.33;;;3.00;99.90;;;;;;5094436;28;20099;-52
2022/01/16 01:31:48;;;;;;;71.15;30.95;;;3.00;99.90;;;;;;5073753;28;20609;-52
2022/01/16 01:34:14;;;;;;;69.60;32.08;;;3.00;99.90;;;;;;5074871;28;20065;-47
2022/01/16 01:36:39;;;;;;;79.95;34.05;;;3.10;99.90;;;;;;5085545;28;20020;-50
2022/01/16 01:39:05;;;;;;;69.20;31.77;;;3.10;99.90;;;;;;5094922;28;20027;-50
2022/01/16 01:41:31;;;;;;;65.57;28.48;;;3.10;99.90;;;;;;5082973;28;20025;-50
2022/01/16 01:52:17;;;;;;;62.35;25.40;;;3.00;99.90;;;;;;5092846;28;20107;-49
2022/01/16 01:54:42;;;;;;;65.55;28.52;;;3.00;99.90;;;;;;5093996;28;20470;-50
2022/01/16 01:57:08;;;;;;;65.13;26.75;;;3.00;99.90;;;;;;5075409;28;20032;-48
2022/01/16 01:59:33;;;;;;;57.22;26.05;;;3.00;99.90;;;;;;5072596;28;20408;-52
2022/01/16 02:02:00;;;;;;;65.93;28.00;;;3.00;99.90;;;;;;5073241;28;20480;-49
2022/01/16 02:04:25;;;;;;;69.13;28.00;;;3.00;99.90;;;;;;5071771;28;20017;-48
2022/01/16 02:06:51;;;;;;;72.78;29.80;;;3.00;99.90;;;;;;5087759;28;20073;-51
2022/01/16 02:09:16;;;;;;;67.03;29.58;;;3.00;99.90;;;;;;5092766;28;20085;-48
2022/01/16 02:11:43;;;;;;;68.78;29.00;;;3.00;99.90;;;;;;5092995;28;20036;-49
2022/01/16 02:14:14;;;;;;;75.25;32.97;;;2.90;99.90;;;;;;5090984;28;20027;-48
2022/01/16 02:28:44;;;;;;;65.47;30.13;;;3.00;99.90;;;;;;5092985;28;20441;-47
2022/01/16 02:31:13;;;;;;;79.45;32.92;;;3.00;99.90;;;;;;5091895;28;20062;-47
2022/01/16 02:36:32;;;;;;;75.67;31.20;;;3.00;99.90;;;;;;5081308;28;20417;-49
2022/01/16 02:39:08;;;;;;;73.50;31.17;;;3.00;99.90;;;;;;5092497;28;20035;-51
2022/01/16 02:41:34;;;;;;;76.53;31.70;;;3.10;99.90;;;;;;5092362;28;20062;-47
2022/01/16 02:44:10;;;;;;;84.88;33.83;;;3.10;99.90;;;;;;5092440;28;20027;-51
2022/01/16 02:46:36;;;;;;;80.55;30.35;;;3.00;99.90;;;;;;5079999;28;20155;-47
2022/01/16 02:49:02;;;;;;;79.10;31.42;;;3.00;99.90;;;;;;5072103;28;20496;-51
2022/01/16 02:51:28;;;;;;;81.68;31.65;;;3.00;99.90;;;;;;5071652;28;20091;-49
2022/01/16 02:53:54;;;;;;;80.03;33.28;;;2.90;99.90;;;;;;5091184;28;20032;-46
2022/01/16 02:56:21;;;;;;;81.43;33.17;;;3.00;99.90;;;;;;5052034;28;1014978;-48
2022/01/16 02:58:48;;;;;;;73.82;32.67;;;2.90;99.90;;;;;;5093204;28;20089;-50
2022/01/16 03:01:14;;;;;;;84.32;35.92;;;2.80;99.90;;;;;;5093300;28;20027;-52
2022/01/16 03:03:40;;;;;;;86.25;36.65;;;2.80;99.90;;;;;;5093630;28;20052;-52
2022/01/16 03:06:06;;;;;;;77.35;34.83;;;2.80;99.90;;;;;;5085337;28;20053;-51
2022/01/16 03:08:32;;;;;;;72.68;31.63;;;2.80;99.90;;;;;;5072961;28;20036;-47
2022/01/16 03:13:24;;;;;;;73.95;34.30;;;3.00;99.90;;;;;;5089582;28;20024;-49
2022/01/16 03:15:52;;;;;;;71.05;30.35;;;2.90;99.90;;;;;;5086263;28;20044;-46
2022/01/16 03:23:27;;;;;;;63.58;30.45;;;2.80;99.90;;;;;;5085733;28;20039;-46
2022/01/16 03:25:53;;;;;;;66.25;31.73;;;2.80;99.90;;;;;;5087121;28;20483;-49
2022/01/16 03:28:20;;;;;;;59.70;30.33;;;2.70;99.90;;;;;;5072244;28;20029;-47
2022/01/16 03:30:46;;;;;;;59.70;27.55;;;2.50;99.90;;;;;;5071839;28;20134;-50
2022/01/16 03:33:12;;;;;;;67.07;29.08;;;2.60;99.90;;;;;;5070857;28;20025;-46
2022/01/16 03:35:38;;;;;;;61.22;28.77;;;2.60;99.90;;;;;;5086084;28;20027;-47
2022/01/16 03:38:05;;;;;;;62.65;27.63;;;2.60;99.90;;;;;;5085506;28;20024;-46
2022/01/16 03:40:30;;;;;;;54.75;26.55;;;2.60;99.90;;;;;;5091843;28;20020;-49
2022/01/16 03:43:04;;;;;;;51.50;25.13;;;2.60;99.90;;;;;;5092258;28;20016;-46
2022/01/16 03:45:29;;;;;;;55.30;28.38;;;2.70;99.90;;;;;;5090648;28;20107;-52
2022/01/16 03:47:56;;;;;;;53.92;25.25;;;2.70;99.90;;;;;;5092207;28;20079;-50
2022/01/16 03:50:22;;;;;;;55.33;24.85;;;2.70;99.90;;;;;;5091740;28;20182;-47
2022/01/16 03:52:47;;;;;;;53.92;24.55;;;2.70;99.90;;;;;;5079247;28;20095;-47
2022/01/16 03:55:13;;;;;;;54.88;24.67;;;2.60;99.90;;;;;;5071474;28;20403;-48
2022/01/16 03:57:38;;;;;;;53.92;24.30;;;2.60;99.90;;;;;;5071697;28;20082;-54
2022/01/16 04:00:06;;;;;;;61.05;26.67;;;2.60;99.90;;;;;;5071454;28;20104;-47
2022/01/16 04:02:32;;;;;;;57.55;26.13;;;2.70;99.90;;;;;;5072880;28;20028;-49
2022/01/16 04:04:57;;;;;;;52.35;25.23;;;2.70;99.90;;;;;;5091994;28;20028;-47
2022/01/16 04:07:25;;;;;;;48.53;24.08;;;2.60;99.90;;;;;;5090814;28;20028;-48
2022/01/16 04:09:50;;;;;;;55.13;25.20;;;2.60;99.90;;;;;;5091656;28;20031;-46
2022/01/16 04:12:21;;;;;;;43.72;23.48;;;2.60;99.90;;;;;;5091812;28;20028;-49
2022/01/16 04:17:18;;;;;;;40.47;19.98;;;2.70;99.90;;;;;;5071881;28;20481;-47
2022/01/16 04:19:44;;;;;;;36.10;21.33;;;2.70;99.90;;;;;;5082100;28;20055;-51
2022/01/16 04:22:11;;;;;;;38.10;19.65;;;2.80;99.90;;;;;;5091958;28;20501;-48
2022/01/16 04:24:37;;;;;;;31.92;17.77;;;2.80;99.90;;;;;;5073252;28;20032;-47
2022/01/16 04:27:03;;;;;;;32.00;18.60;;;2.80;99.90;;;;;;5071634;28;20085;-48
2022/01/16 04:29:29;;;;;;;31.33;17.52;;;2.80;99.90;;;;;;5070454;28;20048;-47
2022/01/16 04:31:54;;;;;;;32.58;18.83;;;2.80;99.90;;;;;;5071531;28;20029;-48
2022/01/16 04:34:20;;;;;;;32.22;17.15;;;2.70;99.90;;;;;;5085219;28;20060;-47
2022/01/16 04:36:45;;;;;;;28.90;16.90;;;2.80;99.90;;;;;;5069920;28;20021;-49
2022/01/16 04:39:18;;;;;;;31.38;17.63;;;2.70;99.90;;;;;;5069814;28;20025;-48
2022/01/16 04:44:28;;;;;;;31.30;17.00;;;2.70;99.90;;;;;;5088126;28;20510;-48
2022/01/16 04:46:54;;;;;;;30.48;17.20;;;2.60;99.90;;;;;;5091440;28;20036;-49
2022/01/16 04:49:20;;;;;;;33.80;17.92;;;2.70;99.90;;;;;;5090940;28;20105;-49
2022/01/16 04:51:46;;;;;;;34.28;17.65;;;2.70;99.90;;;;;;5088798;28;20020;-53
2022/01/16 04:54:11;;;;;;;35.67;18.05;;;2.70;99.90;;;;;;5085473;28;20534;-48
2022/01/16 04:56:37;;;;;;;30.23;17.95;;;2.70;99.90;;;;;;5092283;28;20043;-50
2022/01/16 04:59:03;;;;;;;36.30;16.92;;;2.80;99.90;;;;;;5095334;28;20020;-53
2022/01/16 05:01:28;;;;;;;34.92;16.17;;;2.60;99.90;;;;;;5095158;28;20024;-46
2022/01/16 05:03:54;;;;;;;34.60;17.92;;;2.60;99.90;;;;;;5093633;28;20385;-49
2022/01/16 05:06:20;;;;;;;32.83;17.77;;;2.50;99.90;;;;;;5083289;28;20036;-48
2022/01/16 05:08:45;;;;;;;33.22;18.70;;;2.40;99.90;;;;;;5074940;28;20112;-52
2022/01/16 05:11:13;;;;;;;35.83;19.60;;;2.40;99.90;;;;;;5073265;28;20029;-47
2022/01/16 05:18:50;;;;;;;;;;;2.40;99.90;;;;;;5075489;28;20116;-49
2022/01/16 05:21:16;;;;;;;;;;;2.40;99.90;;;;;;5074867;28;19943;-47
2022/01/16 05:23:42;;;;;;;36.13;19.53;;;2.50;99.90;;;;;;5074487;28;19908;-49
2022/01/16 05:26:08;;;;;;;37.08;18.73;;;2.50;99.90;;;;;;5074645;28;20396;-50
2022/01/16 05:28:35;;;;;;;37.13;17.67;;;2.50;99.90;;;;;;5074569;28;20024;-48
2022/01/16 05:31:00;;;;;;;32.28;18.08;;;2.50;99.90;;;;;;5074019;28;20028;-48
2022/01/16 05:33:26;;;;;;;34.47;18.42;;;2.50;99.90;;;;;;5074187;28;20039;-47
2022/01/16 05:35:52;;;;;;;36.13;19.33;;;2.60;99.90;;;;;;5074266;28;20036;-46
2022/01/16 05:38:18;;;;;;;36.13;19.70;;;2.60;99.90;;;;;;5074396;28;20528;-52
2022/01/16 05:40:44;;;;;;;36.65;18.80;;;2.60;99.90;;;;;;5072578;28;20023;-48
2022/01/16 05:43:10;;;;;;;38.17;20.13;;;2.50;99.90;;;;;;5075451;28;20017;-49
2022/01/16 05:45:36;;;;;;;44.05;20.48;;;2.60;99.90;;;;;;5074165;28;20027;-49
2022/01/16 05:48:02;;;;;;;40.33;21.25;;;2.70;99.90;;;;;;5093275;28;20090;-47
2022/01/16 05:50:27;;;;;;;38.03;19.45;;;2.50;99.90;;;;;;5094481;28;20030;-47
2022/01/16 05:52:53;;;;;;;42.65;20.77;;;2.60;99.90;;;;;;5087809;28;20020;-48
2022/01/16 05:55:19;;;;;;;37.38;19.27;;;2.50;99.90;;;;;;5073772;28;20032;-47
2022/01/16 05:57:46;;;;;;;36.80;18.30;;;2.50;99.90;;;;;;5081710;28;20442;-49
2022/01/16 06:00:14;;;;;;;35.40;19.08;;;2.40;99.90;;;;;;5094076;28;20552;-48
2022/01/16 06:02:40;;;;;;;40.42;19.15;;;2.40;99.90;;;;;;5092341;28;20058;-48
2022/01/16 06:05:06;;;;;;;38.22;19.80;;;2.40;99.90;;;;;;5094002;28;20020;-48
2022/01/16 06:07:32;;;;;;;32.72;18.10;;;2.30;99.90;;;;;;5093565;28;20036;-52
2022/01/16 06:09:57;;;;;;;36.00;18.27;;;2.40;99.90;;;;;;5093128;28;20182;-49
2022/01/16 06:12:22;;;;;;;33.53;17.00;;;2.40;99.90;;;;;;5083977;28;20032;-48
2022/01/16 06:14:48;;;;;;;38.85;18.10;;;2.40;99.90;;;;;;5072337;28;20082;-47
2022/01/16 06:17:14;;;;;;;30.45;16.08;;;2.50;99.90;;;;;;5073761;28;20086;-50
2022/01/16 06:19:39;;;;;;;27.77;15.23;;;2.50;99.90;;;;;;5073159;28;20017;-48
2022/01/16 06:22:05;;;;;;;29.45;14.82;;;2.50;99.90;;;;;;5073568;28;20027;-48
2022/01/16 06:24:31;;;;;;;34.28;16.65;;;2.50;99.90;;;;;;5073205;28;20077;-46
2022/01/16 06:26:56;;;;;;;31.60;16.23;;;2.50;99.90;;;;;;5072197;28;20047;-49
2022/01/16 06:29:22;;;;;;;33.60;16.52;;;2.50;99.90;;;;;;5073061;28;20393;-47
2022/01/16 06:31:48;;;;;;;30.35;15.93;;;2.40;99.90;;;;;;5072197;28;20495;-50
2022/01/16 06:34:14;;;;;;;28.00;15.57;;;2.40;99.90;;;;;;5073385;28;20071;-50
2022/01/16 06:36:40;;;;;;;29.75;14.80;;;2.50;99.90;;;;;;5074301;28;20078;-49
2022/01/16 06:39:09;;;;;;;30.92;15.20;;;2.50;99.90;;;;;;5072962;28;20035;-49
2022/01/16 06:41:36;;;;;;;29.38;15.77;;;2.50;99.90;;;;;;5073256;28;20024;-52
2022/01/16 06:44:02;;;;;;;32.83;16.23;;;2.50;99.90;;;;;;5073258;28;20431;-49
2022/01/16 06:46:27;;;;;;;29.83;15.27;;;2.50;99.90;;;;;;5073028;28;20074;-48
2022/01/16 06:48:54;;;;;;;33.25;15.48;;;2.40;99.90;;;;;;5072948;28;20033;-49
2022/01/16 06:51:20;;;;;;;31.02;15.88;;;2.50;99.90;;;;;;5084711;28;20556;-47
2022/01/16 06:53:50;;;;;;;27.17;15.20;;;2.50;99.90;;;;;;5093192;28;20020;-48
2022/01/16 06:56:17;;;;;;;24.45;13.98;;;2.50;99.90;;;;;;5092964;28;20105;-50
2022/01/16 06:58:43;;;;;;;27.20;14.60;;;2.50;99.90;;;;;;5093227;28;20054;-49
2022/01/16 07:01:09;;;;;;;28.02;14.43;;;2.50;99.90;;;;;;5092816;28;20024;-48
2022/01/16 07:03:35;;;;;;;28.55;15.68;;;2.60;99.90;;;;;;5074806;28;20029;-49
2022/01/16 07:06:01;;;;;;;25.90;15.20;;;2.50;99.90;;;;;;5076837;28;20035;-47
2022/01/16 07:08:27;;;;;;;29.45;15.27;;;2.50;99.90;;;;;;5099143;28;20046;-49
2022/01/16 07:11:00;;;;;;;26.10;14.95;;;2.50;99.90;;;;;;5112962;28;20028;-49
2022/01/16 07:13:27;;;;;;;28.70;14.20;;;2.40;99.90;;;;;;5072536;28;20391;-48
2022/01/16 07:15:52;;;;;;;30.73;16.48;;;2.40;99.90;;;;;;5071111;28;20557;-49
2022/01/16 07:18:19;;;;;;;26.50;15.05;;;2.50;99.90;;;;;;5072500;28;20039;-49
2022/01/16 07:20:45;;;;;;;28.85;16.35;;;2.50;99.90;;;;;;5088083;22;20020;-49
2022/01/16 07:23:12;;;;;;;28.45;15.65;;;2.50;99.90;;;;;;5094291;28;20028;-52
2022/01/16 07:25:37;;;;;;;28.90;14.50;;;2.50;99.90;;;;;;5112931;28;20047;-42
2022/01/16 07:28:03;;;;;;;28.95;15.20;;;2.50;99.90;;;;;;5113044;28;20062;-47
2022/01/16 07:30:29;;;;;;;36.58;16.52;;;2.50;99.90;;;;;;5112036;28;20015;-46
2022/01/16 07:32:55;;;;;;;35.55;17.20;;;2.60;99.90;;;;;;5094623;28;20678;-45
2022/01/16 07:35:20;;;;;;;28.92;15.23;;;2.60;99.90;;;;;;5112927;28;20080;-46
2022/01/16 07:37:47;;;;;;;30.92;15.88;;;2.60;99.90;;;;;;5092909;28;20038;-41
2022/01/16 07:40:13;;;;;;;33.45;15.38;;;2.60;99.90;;;;;;5112319;28;20374;-45
2022/01/16 07:42:39;;;;;;;31.35;16.33;;;2.60;99.90;;;;;;5092499;28;20024;-47
2022/01/16 07:45:05;;;;;;;33.17;16.70;;;2.60;99.90;;;;;;5112694;28;20031;-48
2022/01/16 07:47:30;;;;;;;31.42;16.02;;;2.60;99.90;;;;;;5112584;28;20047;-48
2022/01/16 07:49:56;;;;;;;32.97;16.15;;;2.50;99.90;;;;;;5083439;28;20020;-46
2022/01/16 07:52:21;;;;;;;34.58;16.10;;;2.50;99.90;;;;;;5074964;28;20084;-41
2022/01/16 07:54:47;;;;;;;32.25;17.17;;;2.50;99.90;;;;;;5092056;28;20101;-45
2022/01/16 07:57:13;;;;;;;38.70;17.83;;;2.50;99.90;;;;;;5092139;28;20023;-45
2022/01/16 07:59:39;;;;;;;36.78;18.33;;;2.50;99.90;;;;;;5091935;28;20016;-50
2022/01/16 08:02:06;;;;;;;38.70;18.48;;;2.50;99.90;;;;;;5091862;28;20157;-43
2022/01/16 08:04:31;;;;;;;34.85;17.13;;;2.50;99.90;;;;;;5093047;28;20462;-50
2022/01/16 08:06:57;;;;;;;39.38;18.40;;;2.50;99.90;;;;;;5091802;28;20056;-46
2022/01/16 08:09:22;;;;;;;35.78;18.05;;;2.60;99.90;;;;;;5094412;28;20027;-45
2022/01/16 08:11:48;;;;;;;35.08;18.17;;;2.60;99.90;;;;;;5112167;28;20034;-46
2022/01/16 08:14:13;;;;;;;34.70;17.02;;;2.60;99.90;;;;;;5112108;28;20031;-50
2022/01/16 08:16:39;;;;;;;30.17;16.35;;;2.60;99.90;;;;;;5093935;28;20020;-45
2022/01/16 08:19:04;;;;;;;36.33;18.15;;;2.50;99.90;;;;;;5112019;28;20106;-44
2022/01/16 08:21:30;;;;;;;32.67;16.90;;;2.70;99.90;;;;;;5111657;28;20075;-47
2022/01/16 08:23:56;;;;;;;36.10;18.45;;;2.60;99.90;;;;;;5110838;28;20039;-43
2022/01/16 08:26:21;;;;;;;37.97;17.17;;;2.70;99.90;;;;;;5111832;28;20024;-47
2022/01/16 08:28:47;;;;;;;41.38;18.42;;;2.60;99.90;;;;;;5112071;28;20479;-46
2022/01/16 08:31:12;;;;;;;28.88;16.15;;;2.60;99.90;;;;;;5109244;28;20039;-51
2022/01/16 08:33:38;;;;;;;35.83;17.63;;;2.70;99.90;;;;;;5111991;28;20028;-46
2022/01/16 08:36:04;;;;;;;32.17;16.67;;;2.70;99.90;;;;;;5111828;28;20023;-40
2022/01/16 08:38:30;;;;;;;36.63;18.33;;;2.70;99.90;;;;;;5112022;28;20372;-46
2022/01/16 08:40:56;;;;;;;32.97;16.20;;;2.70;99.90;;;;;;5109814;28;20031;-48
2022/01/16 08:43:23;;;;;;;39.80;19.25;;;2.70;99.90;;;;;;5112035;28;20024;-47
2022/01/16 08:45:49;;;;;;;39.00;19.23;;;2.70;99.90;;;;;;5112005;28;20460;-41
2022/01/16 08:48:14;;;;;;;39.95;19.85;;;2.70;99.90;;;;;;5111712;28;20031;-47
2022/01/16 08:50:40;;;;;;;39.67;19.50;;;2.60;99.90;;;;;;5093399;28;20027;-49
2022/01/16 08:53:06;;;;;;;40.33;20.55;;;2.60;99.90;;;;;;5110044;28;20077;-47
2022/01/16 08:55:33;;;;;;;39.95;19.70;;;2.60;99.90;;;;;;5111828;28;20016;-49
2022/01/16 08:57:59;;;;;;;37.38;20.38;;;2.60;99.90;;;;;;5108294;28;20012;-45
2022/01/16 09:00:26;;;;;;;40.75;20.45;;;2.60;99.90;;;;;;5082486;28;20030;-46
2022/01/16 09:02:52;;;;;;;41.05;19.00;;;2.50;99.90;;;;;;5098337;28;20020;-46
2022/01/16 09:05:17;;;;;;;42.40;20.27;;;2.60;99.90;;;;;;5090347;28;20483;-42
2022/01/16 09:07:43;;;;;;;40.17;19.25;;;2.60;99.90;;;;;;5098166;28;20080;-51
2022/01/16 09:10:09;;;;;;;41.33;19.77;;;2.60;99.90;;;;;;5094563;28;20032;-48
2022/01/16 09:12:36;;;;;;;41.97;20.92;;;2.60;99.90;;;;;;5078648;28;20453;-49
2022/01/16 09:15:05;;;;;;;39.63;20.25;;;2.70;99.90;;;;;;5070939;28;20163;-46
2022/01/16 09:17:30;;;;;;;37.80;19.23;;;2.60;99.90;;;;;;5090742;28;20024;-46
2022/01/16 09:19:56;;;;;;;35.88;18.58;;;2.70;99.90;;;;;;5090732;28;20420;-47
2022/01/16 09:22:22;;;;;;;40.83;18.70;;;2.70;99.90;;;;;;5090949;28;20031;-47
2022/01/16 09:24:47;;;;;;;38.67;19.27;;;2.70;99.90;;;;;;5095174;28;20034;-46
2022/01/16 09:27:13;;;;;;;37.83;17.08;;;2.60;99.90;;;;;;5098599;28;20024;-44
2022/01/16 09:29:38;;;;;;;33.35;18.33;;;2.60;99.90;;;;;;5093518;28;20034;-47
2022/01/16 09:32:05;;;;;;;40.13;18.23;;;2.60;99.90;;;;;;5091974;28;20036;-45
2022/01/16 09:34:31;;;;;;;33.75;17.98;;;2.60;99.90;;;;;;5093420;28;20109;-46
2022/01/16 09:36:56;;;;;;;40.50;20.02;;;2.70;99.90;;;;;;5071700;28;20056;-47
2022/01/16 09:39:22;;;;;;;35.95;18.40;;;2.70;99.90;;;;;;5070476;28;20074;-50
2022/01/16 09:41:47;;;;;;;42.30;19.67;;;2.70;99.90;;;;;;5089141;28;20410;-45
2022/01/16 09:44:15;;;;;;;34.28;18.50;;;2.70;99.90;;;;;;5092593;28;20034;-47
2022/01/16 09:46:40;;;;;;;41.50;18.85;;;2.70;99.90;;;;;;5092546;28;20116;-47
2022/01/16 09:49:06;;;;;;;40.60;21.85;;;2.70;99.90;;;;;;5092840;28;20114;-47
2022/01/16 09:51:32;;;;;;;40.05;18.25;;;2.80;99.90;;;;;;5075654;28;20479;-46
2022/01/16 09:53:58;;;;;;;33.10;17.95;;;2.80;99.90;;;;;;5094345;28;20500;-46
2022/01/16 09:56:24;;;;;;;33.80;18.33;;;2.90;99.90;;;;;;5094637;28;20020;-45
2022/01/16 09:58:50;;;;;;;37.55;17.77;;;3.00;99.90;;;;;;5094461;28;20016;-45
2022/01/16 10:01:16;;;;;;;37.60;19.17;;;3.00;99.90;;;;;;5093900;28;20605;-45
2022/01/16 10:03:45;;;;;;;33.92;18.55;;;3.00;99.90;;;;;;5094382;28;20028;-47
2022/01/16 10:06:22;;;;;;;40.33;17.85;;;3.00;99.90;;;;;;5094245;28;20016;-44
2022/01/16 10:08:50;;;;;;;33.30;16.92;;;3.00;99.90;;;;;;5093854;28;20043;-49
2022/01/16 10:11:28;;;;;;;31.55;17.02;;;3.00;99.90;;;;;;5075350;28;20548;-45
2022/01/16 10:14:03;;;;;;;32.53;16.88;;;3.00;99.90;;;;;;5093837;28;20723;-47
2022/01/16 10:16:32;;;;;;;27.38;15.05;;;3.10;99.90;;;;;;5094047;28;20031;-48
2022/01/16 10:18:59;;;;;;;31.88;17.52;;;3.10;99.90;;;;;;5094219;28;20029;-50
2022/01/16 10:21:37;;;;;;;30.88;16.98;;;3.10;99.90;;;;;;5093441;28;20025;-46
2022/01/16 10:24:21;;;;;;;36.00;17.30;;;3.10;99.90;;;;;;5075368;28;20031;-50
2022/01/16 10:27:09;;;;;;;36.03;18.40;;;3.10;99.90;;;;;;5092558;28;20062;-46
2022/01/16 10:29:46;;;;;;;35.95;17.38;;;3.10;99.90;;;;;;5093167;28;20572;-49
2022/01/16 10:32:24;;;;;;;32.13;17.23;;;3.10;99.90;;;;;;5093451;28;20032;-44
2022/01/16 10:34:52;;;;;;;32.75;17.73;;;3.00;99.90;;;;;;5093618;28;20020;-47
2022/01/16 10:37:25;;;;;;;31.60;16.83;;;3.00;99.90;;;;;;5075296;28;20472;-46
2022/01/16 10:39:51;;;;;;;30.83;15.90;;;3.10;99.90;;;;;;5093261;28;20095;-46
2022/01/16 10:42:17;;;;;;;34.60;16.95;;;3.00;99.90;;;;;;5093410;28;20023;-50
2022/01/16 10:44:44;;;;;;;35.08;16.58;;;3.00;99.90;;;;;;5093144;28;20028;-50
2022/01/16 10:47:53;;;;;;;27.85;15.55;;;3.10;99.90;;;;;;5075157;28;20028;-48
2022/01/16 10:50:24;;;;;;;36.25;16.80;;;3.00;99.90;;;;;;5010863;28;20029;-44
2022/01/16 10:53:03;;;;;;;33.40;17.45;;;3.10;99.90;;;;;;5011006;28;20071;-44
2022/01/16 10:55:43;;;;;;;31.25;17.20;;;3.10;99.90;;;;;;5062095;28;20076;-43
2022/01/16 10:58:16;;;;;;;33.17;17.00;;;3.00;99.90;;;;;;5093224;28;20386;-46
2022/01/16 11:00:44;;;;;;;32.78;16.83;;;3.10;99.90;;;;;;5074504;28;20032;-49
2022/01/16 11:03:13;;;;;;;31.30;16.83;;;3.00;99.90;;;;;;5074914;28;20050;-48
2022/01/16 11:05:43;;;;;;;34.70;18.50;;;3.00;99.90;;;;;;5092926;28;20028;-48
2022/01/16 11:08:12;;;;;;;32.80;16.33;;;3.00;99.90;;;;;;5074758;28;20392;-47
2022/01/16 11:10:40;;;;;;;37.63;17.48;;;2.90;99.90;;;;;;5092509;28;20024;-47
2022/01/16 11:13:11;;;;;;;36.58;17.75;;;2.90;99.90;;;;;;5092944;28;20031;-43
2022/01/16 11:15:39;;;;;;;34.72;18.25;;;2.90;99.90;;;;;;5092979;28;20442;-47
2022/01/16 11:18:06;;;;;;;34.13;15.77;;;3.00;99.90;;;;;;5092870;28;20039;-46
2022/01/16 11:20:35;;;;;;;33.78;18.00;;;3.00;99.90;;;;;;5092409;28;20020;-43
2022/01/16 11:23:06;;;;;;;34.53;16.90;;;3.10;99.90;;;;;;5092652;28;20126;-44
2022/01/16 11:25:36;;;;;;;37.35;16.98;;;3.10;99.90;;;;;;5093020;28;20110;-46
2022/01/16 11:28:07;;;;;;;33.58;17.45;;;3.00;99.90;;;;;;5092830;28;20031;-46
2022/01/16 11:30:36;;;;;;;33.90;17.45;;;3.00;99.90;;;;;;5073981;28;20483;-44
2022/01/16 11:33:02;;;;;;;35.67;18.77;;;3.00;99.90;;;;;;5092576;28;20479;-48
2022/01/16 11:35:29;;;;;;;38.03;19.10;;;3.00;99.90;;;;;;5092880;28;20070;-45
2022/01/16 11:37:56;;;;;;;35.10;18.58;;;3.00;99.90;;;;;;5087984;28;20024;-48
2022/01/16 11:40:27;;;;;;;40.22;20.35;;;3.00;99.90;;;;;;5091500;28;20478;-51
2022/01/16 11:43:30;;;;;;;36.08;18.10;;;3.10;99.90;;;;;;5092409;28;20549;-45
2022/01/16 11:46:04;;;;;;;39.55;19.88;;;3.10;99.90;;;;;;5092140;28;20027;-45
2022/01/16 11:48:35;;;;;;;36.03;18.25;;;3.00;99.90;;;;;;5096033;28;20031;-47
2022/01/16 11:51:06;;;;;;;37.70;18.67;;;3.00;99.90;;;;;;5073115;28;20441;-49
2022/01/16 11:54:04;;;;;;;38.80;19.65;;;3.00;99.90;;;;;;5077780;28;20032;-45
2022/01/16 11:56:41;;;;;;;45.63;21.25;;;3.00;99.90;;;;;;5095584;28;20024;-47
2022/01/16 11:59:22;;;;;;;46.58;21.20;;;3.00;99.90;;;;;;5082329;28;20024;-51
2022/01/16 12:02:00;;;;;;;44.00;20.48;;;3.10;99.90;;;;;;5100020;28;20031;-47
2022/01/16 12:04:29;;;;;;;40.33;20.42;;;3.10;99.90;;;;;;5106515;28;20487;-53
2022/01/16 12:07:00;;;;;;;40.00;21.13;;;3.10;99.90;;;;;;5102125;28;20369;-46
2022/01/16 12:09:35;;;;;;;43.08;22.70;;;3.20;99.90;;;;;;5091552;28;20028;-46
2022/01/16 12:12:16;;;;;;;39.78;19.25;;;3.20;99.90;;;;;;5091642;28;20027;-45
2022/01/16 12:15:16;;;;;;;42.83;21.55;;;3.30;99.90;;;;;;5091868;28;20103;-46
2022/01/16 12:17:43;;;;;;;46.63;23.63;;;3.30;99.90;;;;;;5091742;28;20024;-49
2022/01/16 12:20:12;;;;;;;42.65;20.73;;;3.30;99.90;;;;;;5095077;28;20020;-46
2022/01/16 12:23:08;;;;;;;57.72;30.05;;;3.30;99.90;;;;;;5088520;28;20031;-49
2022/01/16 12:25:40;;;;;;;40.72;19.98;;;3.20;99.90;;;;;;5091789;28;20016;-50
2022/01/16 12:28:06;;;;;;;48.30;22.13;;;3.30;99.90;;;;;;5091108;28;20062;-50
2022/01/16 12:30:32;;;;;;;43.53;22.40;;;3.30;99.90;;;;;;5090828;28;20028;-50
2022/01/16 12:33:10;;;;;;;44.78;22.98;;;3.40;99.90;;;;;;5091357;28;20376;-47
2022/01/16 12:35:42;;;;;;;42.15;22.05;;;3.40;99.90;;;;;;5073331;28;20027;-48
2022/01/16 12:38:12;;;;;;;41.78;20.73;;;3.40;99.90;;;;;;5091520;28;20411;-48
2022/01/16 12:40:39;;;;;;;47.70;23.60;;;3.40;99.90;;;;;;5073778;28;20441;-54
2022/01/16 12:43:09;;;;;;;45.50;22.58;;;3.50;99.90;;;;;;5092407;28;20024;-49
2022/01/16 12:45:41;;;;;;;38.97;20.88;;;3.70;99.90;;;;;;5080301;28;20130;-53
2022/01/16 12:48:08;;;;;;;43.15;22.33;;;3.70;99.90;;;;;;5091254;28;20502;-48
2022/01/16 12:50:36;;;;;;;42.72;20.60;;;3.60;99.90;;;;;;5090958;28;20028;-48
2022/01/16 12:53:03;;;;;;;48.50;24.15;;;3.70;99.90;;;;;;5091173;28;20034;-55
2022/01/16 12:55:30;;;;;;;43.80;21.65;;;3.70;99.90;;;;;;5091426;28;20024;-48
2022/01/16 12:58:22;;;;;;;40.70;19.95;;;3.70;99.90;;;;;;5091403;28;20067;-52
2022/01/16 13:01:17;;;;;;;39.67;19.65;;;3.80;99.90;;;;;;5090714;28;20016;-49
2022/01/16 13:03:44;;;;;;;36.78;18.98;;;3.90;99.90;;;;;;5078197;28;20499;-51
2022/01/16 13:06:22;;;;;;;37.58;20.70;;;4.00;99.90;;;;;;5072769;28;20032;-48
2022/01/16 13:09:06;;;;;;;36.63;19.63;;;4.00;99.90;;;;;;5091272;28;20027;-50
2022/01/16 13:11:33;;;;;;;33.95;18.30;;;4.00;99.90;;;;;;5091135;28;20027;-49
2022/01/16 13:13:59;;;;;;;38.45;19.58;;;4.00;99.90;;;;;;5090825;28;20040;-51
2022/01/16 13:16:26;;;;;;;35.45;19.15;;;3.90;99.90;;;;;;5067244;28;20020;-51
2022/01/16 13:19:50;;;;;;;31.98;18.65;;;4.00;99.90;;;;;;5092480;28;20101;-47
2022/01/16 13:22:23;;;;;;;35.85;20.38;;;4.00;99.90;;;;;;5083072;28;20036;-49
2022/01/16 13:24:55;;;;;;;35.13;20.20;;;3.90;99.90;;;;;;5094565;28;20024;-50
2022/01/16 13:27:26;;;;;;;36.95;19.50;;;3.90;99.90;;;;;;5094936;28;20028;-51